Time;durP1;ratioP1;P1;durP2;ratioP2;P2;SDS_P1;SDS_P2;PMS_P1;PMS_P2;Temp;Humidity;BMP_temperature;BMP_pressure;BME280_temperature;BME280_humidity;BME280_pressure;Samples;Min_cycle;Max_cycle;Signal;HPM_P1;HPM_P2
2023/01/11 00:02:23;;;;;;;4.80;2.07;;;9.10;88.90;;;;;;934350;150;27394;-80
2023/01/11 00:04:49;;;;;;;5.33;1.57;;;9.10;89.00;;;;;;935784;150;28115;-81
2023/01/11 00:07:16;;;;;;;4.23;1.70;;;9.10;89.30;;;;;;935771;150;27424;-81
2023/01/11 00:09:43;;;;;;;3.03;1.70;;;9.10;89.30;;;;;;936072;150;27454;-80
2023/01/11 00:12:11;;;;;;;2.03;1.60;;;9.10;89.30;;;;;;935265;150;27369;-81
2023/01/11 00:14:36;;;;;;;3.50;1.80;;;9.10;89.60;;;;;;935254;150;27435;-81
2023/01/11 00:17:02;;;;;;;4.23;1.77;;;9.10;89.80;;;;;;936068;150;27432;-81
2023/01/11 00:19:29;;;;;;;3.97;1.50;;;9.10;89.80;;;;;;935845;150;27385;-81
2023/01/11 00:21:55;;;;;;;2.97;1.60;;;9.10;89.90;;;;;;935770;150;27335;-81
2023/01/11 00:24:22;;;;;;;2.23;1.57;;;9.10;90.00;;;;;;935557;150;27460;-80
2023/01/11 00:26:49;;;;;;;4.90;2.70;;;9.10;90.00;;;;;;935982;150;27366;-81
2023/01/11 00:29:15;;;;;;;3.33;1.70;;;9.10;90.10;;;;;;936149;150;27441;-80
2023/01/11 00:31:42;;;;;;;2.27;1.43;;;9.10;90.10;;;;;;936202;150;27308;-80
2023/01/11 00:34:08;;;;;;;2.17;1.40;;;9.10;90.20;;;;;;935750;150;27375;-80
2023/01/11 00:36:35;;;;;;;3.53;1.50;;;9.20;90.30;;;;;;936388;150;27383;-81
2023/01/11 00:39:01;;;;;;;4.97;2.10;;;9.20;90.30;;;;;;935823;150;27394;-80
2023/01/11 00:49:42;;;;;;;4.40;1.80;;;9.20;90.40;;;;;;935470;150;27426;-81
2023/01/11 00:52:09;;;;;;;3.43;1.80;;;9.20;90.60;;;;;;935909;150;27375;-81
2023/01/11 00:54:36;;;;;;;2.53;1.67;;;9.20;90.60;;;;;;935945;150;27332;-81
2023/01/11 00:57:02;;;;;;;2.20;1.60;;;9.20;90.70;;;;;;924440;152;27386;-81
2023/01/11 00:59:29;;;;;;;2.30;1.47;;;9.20;90.80;;;;;;921811;153;27467;-81
2023/01/11 01:01:55;;;;;;;4.83;1.87;;;9.20;90.90;;;;;;935113;150;27387;-81
2023/01/11 01:04:22;;;;;;;3.00;1.63;;;9.20;91.00;;;;;;934991;150;27346;-81
2023/01/11 01:06:48;;;;;;;5.17;1.73;;;9.20;91.00;;;;;;935921;150;27898;-81
2023/01/11 01:09:55;;;;;;;3.50;1.80;;;9.20;91.10;;;;;;936630;150;27436;-81
2023/01/11 01:14:24;;;;;;;5.67;1.87;;;9.20;91.20;;;;;;932850;150;27362;-81
2023/01/11 01:14:41;;;;;;;3.90;1.73;;;9.20;91.20;;;;;;934218;150;27406;-81
2023/01/11 01:17:09;;;;;;;3.27;1.77;;;9.20;91.30;;;;;;935594;150;27461;-81
2023/01/11 01:19:35;;;;;;;2.73;1.43;;;9.20;91.40;;;;;;935486;150;27342;-81
2023/01/11 01:22:02;;;;;;;4.10;1.53;;;9.20;91.50;;;;;;935669;150;27378;-81
2023/01/11 01:24:29;;;;;;;3.43;1.80;;;9.20;91.60;;;;;;936499;150;27429;-81
2023/01/11 01:26:55;;;;;;;3.30;1.70;;;9.20;91.60;;;;;;935481;150;27490;-81
2023/01/11 01:29:21;;;;;;;2.10;1.27;;;9.20;91.70;;;;;;936441;150;27355;-81
2023/01/11 01:31:48;;;;;;;3.17;1.60;;;9.20;91.80;;;;;;935199;150;27368;-81
2023/01/11 01:34:15;;;;;;;4.03;1.40;;;9.20;91.90;;;;;;936119;150;27386;-81
2023/01/11 01:36:41;;;;;;;2.77;1.57;;;9.20;92.00;;;;;;936439;150;27366;-80
2023/01/11 01:39:08;;;;;;;2.50;1.50;;;9.20;92.10;;;;;;935935;150;27427;-81
2023/01/11 01:41:34;;;;;;;1.77;1.40;;;9.30;92.10;;;;;;935110;150;27391;-81
2023/01/11 01:44:22;;;;;;;3.80;1.60;;;9.30;92.20;;;;;;935968;150;27358;-81
2023/01/11 01:46:49;;;;;;;1.63;1.20;;;9.30;92.30;;;;;;935053;150;27548;-81
2023/01/11 01:49:15;;;;;;;2.90;1.57;;;9.30;92.30;;;;;;934099;150;27419;-81
2023/01/11 01:51:42;;;;;;;1.77;1.50;;;9.30;92.30;;;;;;929625;152;27329;-81
2023/01/11 01:54:08;;;;;;;2.37;1.20;;;9.30;92.40;;;;;;930088;152;27324;-81
2023/01/11 01:56:35;;;;;;;3.80;1.20;;;9.30;92.50;;;;;;930058;152;27352;-81
2023/01/11 01:59:07;;;;;;;3.30;1.73;;;9.30;92.50;;;;;;929954;152;27426;-81
2023/01/11 02:01:46;;;;;;;1.83;1.20;;;9.40;92.60;;;;;;929283;152;27926;-82
2023/01/11 02:04:13;;;;;;;1.87;1.27;;;9.40;92.70;;;;;;930697;152;27424;-82
2023/01/11 02:06:40;;;;;;;2.73;1.40;;;9.40;92.80;;;;;;928458;152;27352;-82
2023/01/11 02:09:12;;;;;;;1.83;1.33;;;9.40;92.80;;;;;;930267;152;27378;-81
2023/01/11 02:11:42;;;;;;;2.10;1.10;;;9.40;92.90;;;;;;927174;152;28874;-81
2023/01/11 02:14:08;;;;;;;2.20;1.67;;;9.40;92.90;;;;;;929830;151;27420;-81
2023/01/11 02:16:34;;;;;;;3.03;1.50;;;9.40;93.00;;;;;;930019;152;27522;-82
2023/01/11 02:19:01;;;;;;;3.03;1.40;;;9.40;93.10;;;;;;930664;152;27385;-81
2023/01/11 02:21:42;;;;;;;5.10;1.63;;;9.40;93.20;;;;;;930375;152;27376;-81
2023/01/11 02:24:30;;;;;;;2.47;1.33;;;9.50;93.20;;;;;;930233;150;27887;-81
2023/01/11 02:27:02;;;;;;;2.53;1.50;;;9.50;93.40;;;;;;929520;152;27351;-81
2023/01/11 02:29:44;;;;;;;2.23;1.00;;;9.50;93.30;;;;;;929150;152;27959;-81
2023/01/11 02:32:25;;;;;;;2.00;1.13;;;9.50;93.50;;;;;;915691;152;27425;-81
2023/01/11 02:35:07;;;;;;;2.17;1.30;;;9.50;93.50;;;;;;916749;153;27378;-81
2023/01/11 02:37:36;;;;;;;2.10;1.30;;;9.50;93.60;;;;;;917783;156;27445;-81
2023/01/11 02:40:24;;;;;;;2.60;1.40;;;9.50;93.50;;;;;;933105;151;27484;-81
2023/01/11 02:46:08;;;;;;;1.40;1.23;;;9.60;93.50;;;;;;933986;153;27406;-80
2023/01/11 02:49:02;;;;;;;2.17;1.20;;;9.60;93.50;;;;;;933058;153;27795;-81
2023/01/11 02:51:31;;;;;;;1.50;1.17;;;9.50;93.40;;;;;;908548;154;27431;-81
2023/01/11 02:54:00;;;;;;;1.77;1.30;;;9.50;93.60;;;;;;897635;155;28031;-81
2023/01/11 02:56:27;;;;;;;1.67;1.40;;;9.60;93.70;;;;;;921482;152;27453;-81
2023/01/11 02:58:54;;;;;;;2.10;1.10;;;9.50;93.70;;;;;;905358;155;27946;-81
2023/01/11 03:01:21;;;;;;;3.17;1.20;;;9.50;93.90;;;;;;921324;155;27398;-80
2023/01/11 03:03:47;;;;;;;2.70;1.33;;;9.50;94.00;;;;;;921192;153;28276;-81
2023/01/11 03:06:13;;;;;;;2.67;1.47;;;9.50;94.20;;;;;;921750;153;27377;-81
2023/01/11 03:08:49;;;;;;;1.50;1.40;;;9.50;94.30;;;;;;920801;155;27311;-82
2023/01/11 03:13:44;;;;;;;1.53;1.43;;;9.50;94.40;;;;;;909575;155;27477;-82
2023/01/11 03:16:17;;;;;;;3.03;1.43;;;9.50;94.50;;;;;;922166;153;27363;-82
2023/01/11 03:19:02;;;;;;;2.23;1.27;;;9.50;94.60;;;;;;922064;152;27398;-82
2023/01/11 03:21:43;;;;;;;1.77;1.17;;;9.50;94.70;;;;;;920807;154;27395;-83
2023/01/11 03:24:13;;;;;;;1.20;1.10;;;9.50;94.70;;;;;;894459;157;28544;-83
2023/01/11 03:26:51;;;;;;;2.80;1.30;;;9.50;94.90;;;;;;895743;158;27363;-79
2023/01/11 03:29:33;;;;;;;1.33;1.10;;;9.50;95.00;;;;;;921570;152;27370;-80
2023/01/11 03:32:05;;;;;;;1.27;1.00;;;9.50;95.10;;;;;;921679;154;27386;-80
2023/01/11 03:34:44;;;;;;;2.90;1.87;;;9.50;95.30;;;;;;921353;155;27367;-78
2023/01/11 03:37:11;;;;;;;2.77;1.23;;;9.50;95.40;;;;;;920763;155;27363;-78
2023/01/11 03:39:43;;;;;;;2.20;1.20;;;9.50;95.50;;;;;;921050;155;27343;-78
2023/01/11 03:42:09;;;;;;;2.37;1.27;;;9.50;95.60;;;;;;923476;153;27408;-78
2023/01/11 03:44:36;;;;;;;1.77;1.30;;;9.60;95.80;;;;;;906411;155;27496;-78
2023/01/11 03:47:02;;;;;;;1.83;1.27;;;9.60;95.80;;;;;;904659;158;27413;-78
2023/01/11 03:49:38;;;;;;;1.90;1.20;;;9.60;95.90;;;;;;920344;154;27479;-78
2023/01/11 03:52:04;;;;;;;1.57;1.00;;;9.60;96.00;;;;;;932499;153;27423;-78
2023/01/11 03:54:31;;;;;;;2.10;1.43;;;9.60;96.00;;;;;;933550;153;27363;-77
2023/01/11 03:57:12;;;;;;;2.43;1.37;;;9.60;96.10;;;;;;934504;153;27763;-78
2023/01/11 03:59:39;;;;;;;1.97;1.03;;;9.70;96.20;;;;;;933258;152;27366;-78
2023/01/11 04:02:05;;;;;;;4.53;1.37;;;9.70;96.20;;;;;;934409;153;27383;-81
2023/01/11 04:04:32;;;;;;;1.80;1.17;;;9.70;96.40;;;;;;932213;150;27928;-80
2023/01/11 04:06:59;;;;;;;1.97;1.13;;;9.70;96.50;;;;;;934200;153;27431;-77
2023/01/11 04:09:25;;;;;;;3.90;1.40;;;9.80;96.60;;;;;;933687;153;27351;-78
2023/01/11 04:11:52;;;;;;;2.27;1.30;;;9.80;96.70;;;;;;934242;153;27425;-80
2023/01/11 04:14:18;;;;;;;1.20;1.10;;;9.80;96.80;;;;;;934282;153;27402;-80
2023/01/11 04:16:45;;;;;;;3.10;1.37;;;9.80;96.90;;;;;;934118;153;27823;-78
2023/01/11 04:19:12;;;;;;;2.00;1.20;;;9.90;97.00;;;;;;934197;153;27361;-78
2023/01/11 04:21:38;;;;;;;2.40;1.50;;;9.90;97.00;;;;;;934432;153;27338;-77
2023/01/11 04:24:05;;;;;;;1.53;1.10;;;10.00;97.10;;;;;;934230;151;27433;-80
2023/01/11 04:26:32;;;;;;;1.70;1.30;;;10.00;97.20;;;;;;934018;153;28016;-78
2023/01/11 04:28:58;;;;;;;1.40;1.30;;;10.10;97.30;;;;;;933630;153;27390;-78
2023/01/11 04:31:25;;;;;;;1.87;1.30;;;10.10;97.30;;;;;;934061;153;27378;-78
2023/01/11 04:33:51;;;;;;;1.47;1.20;;;10.10;97.40;;;;;;934438;153;27379;-79
2023/01/11 04:36:18;;;;;;;1.37;0.93;;;10.20;97.50;;;;;;934100;153;27389;-78
2023/01/11 04:38:44;;;;;;;2.83;1.37;;;10.20;97.50;;;;;;934183;151;27484;-78
2023/01/11 04:43:55;;;;;;;3.10;1.70;;;10.30;97.70;;;;;;934052;153;27358;-79
2023/01/11 04:46:22;;;;;;;1.90;1.20;;;10.30;97.80;;;;;;934323;152;27413;-80
2023/01/11 04:48:49;;;;;;;1.60;1.07;;;10.40;98.00;;;;;;933822;153;27390;-78
2023/01/11 04:51:15;;;;;;;1.80;1.40;;;10.40;98.00;;;;;;934002;153;27514;-77
2023/01/11 04:53:42;;;;;;;2.27;1.30;;;10.50;98.20;;;;;;934548;153;27351;-78
2023/01/11 04:56:10;;;;;;;3.50;1.30;;;10.50;98.20;;;;;;934277;153;27398;-79
2023/01/11 04:58:35;;;;;;;1.93;1.30;;;10.60;98.60;;;;;;933598;153;27845;-77
2023/01/11 05:01:01;;;;;;;2.83;1.43;;;10.70;98.40;;;;;;933995;153;28565;-78
2023/01/11 05:03:30;;;;;;;1.30;0.90;;;10.70;98.40;;;;;;933630;153;27363;-78
2023/01/11 05:05:55;;;;;;;1.57;1.10;;;10.80;98.40;;;;;;934149;151;27431;-78
2023/01/11 05:08:21;;;;;;;1.57;1.10;;;10.80;98.40;;;;;;933742;153;27387;-80
2023/01/11 05:10:51;;;;;;;1.20;1.10;;;10.90;98.40;;;;;;934173;153;27955;-79
2023/01/11 05:13:17;;;;;;;1.10;1.00;;;10.90;98.50;;;;;;934125;153;27752;-79
2023/01/11 05:15:44;;;;;;;1.43;1.10;;;10.90;98.40;;;;;;934247;153;27413;-79
2023/01/11 05:18:10;;;;;;;1.10;1.00;;;11.00;98.60;;;;;;934062;153;27387;-80
2023/01/11 05:20:37;;;;;;;0.90;0.90;;;11.10;98.70;;;;;;934336;153;27511;-78
2023/01/11 05:23:03;;;;;;;2.63;1.17;;;11.10;98.80;;;;;;934010;153;27347;-80
2023/01/11 05:25:30;;;;;;;1.90;0.97;;;11.10;98.80;;;;;;934479;151;27468;-78
2023/01/11 05:27:57;;;;;;;1.43;0.93;;;11.20;98.80;;;;;;934399;153;27464;-78
2023/01/11 05:30:23;;;;;;;1.17;0.93;;;11.20;98.90;;;;;;934346;153;27476;-81
2023/01/11 05:32:50;;;;;;;0.90;0.80;;;11.20;98.80;;;;;;934054;153;27395;-78
2023/01/11 05:35:16;;;;;;;1.33;1.10;;;11.30;98.90;;;;;;934323;153;27385;-78
2023/01/11 05:37:43;;;;;;;1.20;0.87;;;11.30;98.90;;;;;;934297;153;27918;-78
2023/01/11 05:40:10;;;;;;;1.10;0.80;;;11.40;99.00;;;;;;934310;153;27340;-81
2023/01/11 05:42:37;;;;;;;0.80;0.80;;;11.40;99.00;;;;;;933961;153;27444;-80
2023/01/11 05:47:48;;;;;;;1.67;0.83;;;11.50;99.00;;;;;;934295;153;27335;-78
2023/01/11 05:50:15;;;;;;;0.87;0.87;;;11.50;98.80;;;;;;933962;153;27437;-77
2023/01/11 05:52:41;;;;;;;0.87;0.77;;;11.50;98.80;;;;;;934353;153;27402;-78
2023/01/11 05:55:08;;;;;;;0.63;0.63;;;11.60;98.90;;;;;;934501;153;27413;-80
2023/01/11 05:57:34;;;;;;;1.27;0.80;;;11.60;98.80;;;;;;934200;153;27386;-78
2023/01/11 06:00:01;;;;;;;0.70;0.70;;;11.60;98.80;;;;;;933709;152;27384;-78
2023/01/11 06:02:27;;;;;;;1.07;0.90;;;11.70;98.70;;;;;;934237;153;27451;-78
2023/01/11 06:04:54;;;;;;;1.80;0.63;;;11.70;98.80;;;;;;934387;153;27440;-80
2023/01/11 06:07:23;;;;;;;0.80;0.80;;;11.80;98.70;;;;;;934264;153;27398;-78
2023/01/11 06:09:47;;;;;;;1.13;0.97;;;11.80;98.70;;;;;;933791;153;27686;-80
2023/01/11 06:12:14;;;;;;;0.70;0.70;;;11.80;98.60;;;;;;934095;153;27351;-78
2023/01/11 06:14:40;;;;;;;1.00;0.80;;;11.90;98.70;;;;;;933629;153;27343;-78
2023/01/11 06:17:07;;;;;;;0.80;0.80;;;11.90;98.60;;;;;;934417;151;27398;-78
2023/01/11 06:19:34;;;;;;;1.33;1.07;;;11.90;98.60;;;;;;933738;153;27375;-78
2023/01/11 06:22:00;;;;;;;1.20;0.77;;;11.90;98.70;;;;;;934247;152;27359;-78
2023/01/11 06:24:27;;;;;;;1.13;0.80;;;12.00;98.70;;;;;;934199;151;27495;-79
2023/01/11 06:26:53;;;;;;;0.77;0.67;;;12.00;98.80;;;;;;934491;153;27476;-81
2023/01/11 06:29:20;;;;;;;0.80;0.80;;;12.00;98.70;;;;;;934196;153;27487;-79
2023/01/11 06:31:47;;;;;;;0.70;0.70;;;12.00;98.70;;;;;;933720;153;27472;-78
2023/01/11 06:34:13;;;;;;;0.80;0.80;;;12.00;98.60;;;;;;933555;153;27425;-78
2023/01/11 06:36:40;;;;;;;0.77;0.77;;;12.00;98.70;;;;;;933961;153;27300;-80
2023/01/11 06:39:06;;;;;;;0.83;0.83;;;12.00;98.70;;;;;;934288;153;27789;-79
2023/01/11 06:41:33;;;;;;;1.50;0.80;;;12.00;98.80;;;;;;934328;153;27363;-78
2023/01/11 06:43:59;;;;;;;0.73;0.73;;;12.00;99.00;;;;;;934176;153;27283;-78
2023/01/11 06:46:26;;;;;;;1.20;1.10;;;12.00;99.00;;;;;;934222;153;27367;-79
2023/01/11 06:48:53;;;;;;;0.70;0.70;;;11.90;99.10;;;;;;934273;153;27384;-80
2023/01/11 06:51:19;;;;;;;1.07;0.80;;;11.90;99.20;;;;;;934353;153;27374;-78
2023/01/11 06:53:46;;;;;;;1.63;0.97;;;11.90;99.40;;;;;;934362;153;27317;-78
2023/01/11 06:56:12;;;;;;;0.60;0.60;;;11.90;99.60;;;;;;933700;153;27336;-78
2023/01/11 06:58:39;;;;;;;2.40;0.60;;;11.90;99.80;;;;;;933529;152;27354;-81
2023/01/11 07:01:06;;;;;;;0.87;0.70;;;11.80;99.90;;;;;;934018;153;27398;-78
2023/01/11 07:03:32;;;;;;;1.17;1.10;;;11.80;99.90;;;;;;934302;153;26450;-78
2023/01/11 07:05:59;;;;;;;0.40;0.40;;;11.80;99.90;;;;;;933581;153;27896;-79
2023/01/11 07:08:25;;;;;;;0.53;0.53;;;11.80;99.90;;;;;;933643;153;27419;-78
2023/01/11 07:10:52;;;;;;;1.03;0.70;;;11.70;99.90;;;;;;934205;153;27468;-78
2023/01/11 07:13:18;;;;;;;1.00;0.70;;;11.70;99.90;;;;;;934327;153;27382;-78
2023/01/11 07:15:47;;;;;;;0.87;0.80;;;11.80;99.90;;;;;;934050;153;27324;-79
2023/01/11 07:18:12;;;;;;;0.70;0.70;;;11.70;99.90;;;;;;933658;153;27357;-78
2023/01/11 07:20:38;;;;;;;1.93;1.70;;;11.70;99.90;;;;;;934229;151;27860;-80
2023/01/11 07:23:06;;;;;;;1.13;0.90;;;11.70;99.90;;;;;;934042;153;27468;-78
2023/01/11 07:25:31;;;;;;;2.70;1.97;;;11.70;99.90;;;;;;932985;151;27432;-78
2023/01/11 07:27:58;;;;;;;1.30;1.20;;;11.70;99.90;;;;;;933764;153;27393;-78
2023/01/11 07:30:25;;;;;;;1.13;1.10;;;11.70;99.90;;;;;;933563;153;27427;-78
2023/01/11 07:32:51;;;;;;;1.37;1.30;;;11.70;99.90;;;;;;933691;152;27373;-78
2023/01/11 07:35:18;;;;;;;1.63;1.50;;;11.80;99.90;;;;;;933823;153;27398;-78
2023/01/11 07:37:44;;;;;;;1.63;1.20;;;11.70;99.90;;;;;;934328;153;27721;-78
2023/01/11 07:40:11;;;;;;;0.80;0.80;;;11.70;99.90;;;;;;933628;153;27383;-78
2023/01/11 07:45:22;;;;;;;1.40;1.20;;;11.80;99.90;;;;;;934283;153;27399;-79
2023/01/11 07:47:50;;;;;;;0.87;0.87;;;11.80;99.90;;;;;;934917;151;27503;-78
2023/01/11 07:50:16;;;;;;;1.50;0.97;;;11.80;99.90;;;;;;933411;153;27402;-78
2023/01/11 07:52:48;;;;;;;1.90;1.00;;;11.80;99.90;;;;;;934015;150;27367;-78
2023/01/11 07:55:15;;;;;;;1.40;1.30;;;11.80;99.90;;;;;;939122;150;27359;-80
2023/01/11 07:57:41;;;;;;;1.53;1.43;;;11.80;99.90;;;;;;939929;150;27382;-78
2023/01/11 08:00:08;;;;;;;1.57;1.20;;;11.80;99.90;;;;;;938777;150;27358;-79
2023/01/11 08:02:35;;;;;;;1.73;1.60;;;11.80;99.90;;;;;;939844;150;27482;-78
2023/01/11 08:05:01;;;;;;;1.63;1.30;;;11.80;99.90;;;;;;939188;150;27354;-79
2023/01/11 08:07:28;;;;;;;1.00;1.00;;;11.90;99.90;;;;;;938984;150;27448;-81
2023/01/11 08:09:55;;;;;;;1.20;1.10;;;11.80;99.90;;;;;;939777;150;27374;-79
2023/01/11 08:15:08;;;;;;;0.90;0.90;;;11.90;99.90;;;;;;939421;150;27495;-78
2023/01/11 08:17:34;;;;;;;0.93;0.93;;;11.90;99.90;;;;;;939162;150;27424;-78
2023/01/11 08:19:59;;;;;;;0.90;0.90;;;11.90;99.90;;;;;;938897;150;27389;-78
2023/01/11 08:22:26;;;;;;;0.90;0.90;;;11.90;99.90;;;;;;939478;150;28072;-78
2023/01/11 08:24:52;;;;;;;0.97;0.90;;;11.90;99.90;;;;;;939244;150;27389;-78
2023/01/11 08:27:19;;;;;;;1.20;0.90;;;11.90;99.90;;;;;;939813;150;27857;-78
2023/01/11 08:29:45;;;;;;;1.30;1.20;;;11.90;99.90;;;;;;939579;150;27386;-80
2023/01/11 08:32:12;;;;;;;1.37;1.20;;;12.00;99.90;;;;;;939509;150;27799;-78
2023/01/11 08:34:39;;;;;;;1.97;1.00;;;12.00;99.90;;;;;;939459;150;27334;-78
2023/01/11 08:37:05;;;;;;;1.53;1.10;;;12.00;99.90;;;;;;939287;150;27359;-79
2023/01/11 08:39:32;;;;;;;1.80;1.37;;;12.10;99.90;;;;;;939944;150;27388;-79
2023/01/11 08:41:58;;;;;;;2.77;1.60;;;12.10;99.90;;;;;;939909;150;27393;-78
2023/01/11 08:44:25;;;;;;;1.30;1.20;;;12.10;99.90;;;;;;939756;150;27302;-78
2023/01/11 08:46:51;;;;;;;1.10;0.80;;;12.10;99.90;;;;;;922416;152;27350;-80
2023/01/11 08:49:18;;;;;;;1.50;1.40;;;12.10;99.90;;;;;;938400;150;27441;-78
2023/01/11 08:51:45;;;;;;;0.93;0.93;;;12.10;99.90;;;;;;938673;150;27387;-78
2023/01/11 08:54:11;;;;;;;1.10;1.00;;;12.20;99.90;;;;;;918162;155;27459;-79
2023/01/11 08:56:38;;;;;;;2.40;0.97;;;12.20;99.90;;;;;;918442;153;27376;-79
2023/01/11 08:59:04;;;;;;;0.63;0.63;;;12.10;99.90;;;;;;920730;155;27754;-78
2023/01/11 09:01:32;;;;;;;1.20;1.10;;;12.20;99.90;;;;;;920786;154;27386;-80
2023/01/11 09:03:58;;;;;;;1.00;1.00;;;12.20;99.90;;;;;;920734;155;27406;-79
2023/01/11 09:06:24;;;;;;;1.10;1.10;;;12.20;99.90;;;;;;920764;153;27460;-79
2023/01/11 09:08:51;;;;;;;1.00;1.00;;;12.20;99.90;;;;;;918271;156;27464;-78
2023/01/11 09:14:02;;;;;;;2.17;1.20;;;12.20;99.90;;;;;;905456;157;28034;-79
2023/01/11 09:16:28;;;;;;;2.80;1.40;;;12.30;99.90;;;;;;918474;156;27477;-78
2023/01/11 09:18:55;;;;;;;1.93;1.83;;;12.30;99.90;;;;;;920868;155;27458;-79
2023/01/11 09:21:22;;;;;;;2.60;1.47;;;12.30;99.90;;;;;;920903;155;27342;-78
2023/01/11 09:23:48;;;;;;;2.60;1.50;;;12.30;99.90;;;;;;921133;153;27542;-79
2023/01/11 09:26:15;;;;;;;1.27;1.27;;;12.30;99.90;;;;;;920404;153;27454;-79
2023/01/11 09:28:41;;;;;;;1.30;1.20;;;12.30;99.90;;;;;;905083;156;27370;-78
2023/01/11 09:31:08;;;;;;;0.80;0.80;;;12.30;99.90;;;;;;920560;155;27426;-78
2023/01/11 09:33:35;;;;;;;1.90;1.33;;;12.30;99.90;;;;;;921056;155;27472;-80
2023/01/11 09:36:01;;;;;;;0.80;0.80;;;12.40;99.90;;;;;;922226;155;27402;-78
2023/01/11 09:38:29;;;;;;;0.77;0.77;;;12.40;99.90;;;;;;918465;153;27391;-78
2023/01/11 09:41:18;;;;;;;0.80;0.80;;;12.40;99.90;;;;;;918028;156;27386;-78
2023/01/11 09:43:42;;;;;;;1.05;0.90;;;12.40;99.90;;;;;;886750;157;27497;-79
2023/01/11 09:46:09;;;;;;;0.87;0.70;;;12.40;99.90;;;;;;917653;153;27464;-80
2023/01/11 09:48:44;;;;;;;0.80;0.80;;;12.40;99.90;;;;;;918473;156;27484;-78
2023/01/11 09:51:15;;;;;;;1.10;1.00;;;12.50;99.90;;;;;;904964;157;27920;-78
2023/01/11 09:53:44;;;;;;;1.60;0.70;;;12.50;99.90;;;;;;920072;153;27419;-78
2023/01/11 09:56:07;;;;;;;0.70;0.70;;;12.50;99.90;;;;;;932306;152;27362;-81
2023/01/11 09:58:40;;;;;;;0.73;0.70;;;12.50;99.90;;;;;;933722;150;27393;-78
2023/01/11 10:01:37;;;;;;;1.00;0.97;;;12.50;99.90;;;;;;933432;153;27886;-78
2023/01/11 10:04:10;;;;;;;0.97;0.97;;;12.50;99.90;;;;;;934082;153;27312;-79
2023/01/11 10:06:51;;;;;;;2.13;1.13;;;12.60;99.90;;;;;;933274;153;27364;-78
2023/01/11 10:09:32;;;;;;;0.67;0.67;;;12.50;99.90;;;;;;934432;153;28037;-79
2023/01/11 10:12:11;;;;;;;0.87;0.87;;;12.60;99.90;;;;;;934275;153;27386;-78
2023/01/11 10:14:56;;;;;;;1.03;0.67;;;12.60;99.90;;;;;;933906;153;27292;-78
2023/01/11 10:17:25;;;;;;;0.90;0.77;;;12.60;99.90;;;;;;933295;153;27459;-79
2023/01/11 10:19:53;;;;;;;1.03;0.80;;;12.60;99.90;;;;;;934383;153;27439;-79
2023/01/11 10:22:22;;;;;;;0.73;0.60;;;12.60;99.90;;;;;;933564;153;27358;-79
2023/01/11 10:24:55;;;;;;;0.70;0.70;;;12.60;99.90;;;;;;933665;151;27865;-78
2023/01/11 10:27:20;;;;;;;1.27;0.50;;;12.60;99.90;;;;;;933381;153;28041;-79
2023/01/11 10:32:56;;;;;;;0.80;0.60;;;12.60;99.90;;;;;;933466;153;27399;-80
2023/01/11 10:41:05;;;;;;;0.80;0.70;;;12.60;99.90;;;;;;906450;153;27456;-79
2023/01/11 10:43:29;;;;;;;1.77;0.50;;;12.60;99.90;;;;;;933861;153;27583;-81
2023/01/11 10:45:59;;;;;;;0.50;0.50;;;12.60;99.90;;;;;;933994;152;27385;-79
2023/01/11 10:48:32;;;;;;;0.67;0.67;;;12.60;99.90;;;;;;933378;153;27363;-79
2023/01/11 10:51:16;;;;;;;0.50;0.50;;;12.70;99.90;;;;;;933697;151;27444;-79
2023/01/11 10:53:43;;;;;;;0.50;0.50;;;12.60;99.90;;;;;;933542;151;27341;-79
2023/01/11 10:56:15;;;;;;;0.70;0.70;;;12.70;99.90;;;;;;933920;150;27446;-81
2023/01/11 10:59:03;;;;;;;1.33;0.50;;;12.70;99.90;;;;;;934900;150;27673;-79
2023/01/11 11:01:39;;;;;;;0.70;0.63;;;12.70;99.90;;;;;;934649;150;27339;-80
2023/01/11 11:04:17;;;;;;;0.67;0.67;;;12.70;99.90;;;;;;935184;150;27366;-79
2023/01/11 11:06:56;;;;;;;0.83;0.70;;;12.80;99.90;;;;;;923144;150;27354;-80
2023/01/11 11:09:47;;;;;;;0.57;0.57;;;12.80;99.90;;;;;;933794;150;27385;-78
2023/01/11 11:12:28;;;;;;;0.60;0.60;;;12.80;99.90;;;;;;935262;150;27389;-78
2023/01/11 11:15:07;;;;;;;0.40;0.40;;;12.80;99.90;;;;;;928564;150;27433;-78
2023/01/11 11:17:34;;;;;;;0.80;0.70;;;12.90;99.90;;;;;;934754;150;27371;-79
2023/01/11 11:20:00;;;;;;;1.60;0.70;;;12.90;99.90;;;;;;935124;150;27383;-79
2023/01/11 11:22:27;;;;;;;0.60;0.60;;;12.90;99.90;;;;;;922149;152;27506;-78
2023/01/11 11:25:02;;;;;;;0.63;0.63;;;13.00;99.90;;;;;;935222;150;27390;-79
2023/01/11 11:27:42;;;;;;;0.77;0.60;;;13.00;99.90;;;;;;934158;150;27343;-79
2023/01/11 11:30:11;;;;;;;1.50;1.00;;;13.00;99.90;;;;;;936150;150;27346;-78
2023/01/11 11:32:37;;;;;;;0.60;0.50;;;13.00;99.90;;;;;;935122;150;27488;-78
2023/01/11 11:35:06;;;;;;;1.07;0.70;;;13.00;99.90;;;;;;935461;150;27390;-78
2023/01/11 11:37:31;;;;;;;0.63;0.63;;;13.00;99.90;;;;;;934733;150;28408;-80
2023/01/11 11:39:57;;;;;;;0.90;0.90;;;13.10;99.90;;;;;;905795;155;27444;-78
2023/01/11 11:42:24;;;;;;;0.72;0.65;;;13.10;99.90;;;;;;935306;150;27528;-79
2023/01/11 11:45:09;;;;;;;0.70;0.70;;;13.10;99.90;;;;;;935082;150;27488;-79
2023/01/11 11:47:35;;;;;;;1.05;0.82;;;13.20;99.90;;;;;;934958;150;27479;-78
2023/01/11 11:50:20;;;;;;;1.65;1.02;;;13.20;99.90;;;;;;934866;150;27486;-78
2023/01/11 11:53:02;;;;;;;0.70;0.70;;;13.20;99.90;;;;;;914628;150;27351;-78
2023/01/11 11:55:29;;;;;;;0.77;0.77;;;13.30;99.90;;;;;;934753;150;27862;-78
2023/01/11 11:57:55;;;;;;;0.60;0.60;;;13.40;99.90;;;;;;936231;150;27390;-78
2023/01/11 12:00:27;;;;;;;0.60;0.60;;;13.40;99.90;;;;;;935254;150;27374;-78
2023/01/11 12:03:06;;;;;;;0.80;0.80;;;13.50;99.90;;;;;;935241;150;27366;-78
2023/01/11 12:05:32;;;;;;;0.90;0.50;;;13.50;99.90;;;;;;924881;150;27427;-79
2023/01/11 12:07:59;;;;;;;0.55;0.53;;;13.60;99.90;;;;;;934853;150;27389;-78
2023/01/11 12:10:26;;;;;;;0.88;0.88;;;13.60;99.90;;;;;;935807;150;28500;-78
2023/01/11 12:12:58;;;;;;;2.02;1.00;;;13.60;99.90;;;;;;934682;150;27361;-78
2023/01/11 12:15:28;;;;;;;0.60;0.60;;;13.60;99.90;;;;;;935712;150;27335;-79
2023/01/11 12:17:54;;;;;;;0.50;0.50;;;13.70;99.90;;;;;;935896;150;27389;-78
2023/01/11 12:20:23;;;;;;;1.22;0.78;;;13.70;99.90;;;;;;935085;150;27436;-78
2023/01/11 12:22:50;;;;;;;1.47;0.50;;;13.70;99.90;;;;;;936263;150;27351;-78
2023/01/11 12:25:16;;;;;;;1.70;0.75;;;13.80;99.90;;;;;;935552;150;27339;-79
2023/01/11 12:27:49;;;;;;;1.10;1.00;;;13.90;99.90;;;;;;935611;150;27386;-78
2023/01/11 12:30:30;;;;;;;1.10;1.00;;;14.00;99.90;;;;;;933015;150;27382;-78
2023/01/11 12:33:12;;;;;;;1.10;1.00;;;14.00;99.90;;;;;;935028;150;28072;-78
2023/01/11 12:35:44;;;;;;;2.50;1.10;;;14.10;99.90;;;;;;934227;150;27296;-79
2023/01/11 12:38:13;;;;;;;1.17;1.00;;;14.20;99.90;;;;;;932670;150;27511;-78
2023/01/11 12:40:45;;;;;;;0.88;0.88;;;14.10;99.90;;;;;;933523;150;27362;-78
2023/01/11 12:43:42;;;;;;;0.95;0.90;;;14.20;99.90;;;;;;935057;150;27367;-78
2023/01/11 12:46:30;;;;;;;1.50;1.27;;;14.20;99.90;;;;;;934803;150;27374;-81
2023/01/11 12:49:06;;;;;;;1.02;0.90;;;14.10;99.90;;;;;;934693;150;27402;-79
2023/01/11 12:51:50;;;;;;;0.82;0.82;;;14.20;99.90;;;;;;935847;150;27459;-79
2023/01/11 12:54:38;;;;;;;1.10;1.10;;;14.10;99.90;;;;;;935855;150;27308;-78
2023/01/11 12:57:35;;;;;;;0.88;0.88;;;14.10;99.90;;;;;;934645;150;27351;-79
2023/01/11 13:00:08;;;;;;;0.70;0.70;;;14.10;99.90;;;;;;905100;156;27474;-80
2023/01/11 13:02:40;;;;;;;0.80;0.80;;;14.10;99.90;;;;;;912563;153;27514;-79
2023/01/11 13:05:25;;;;;;;0.80;0.80;;;14.00;99.90;;;;;;933773;153;27479;-79
2023/01/11 13:08:04;;;;;;;1.07;0.98;;;14.00;99.90;;;;;;933434;153;28494;-79
2023/01/11 13:10:39;;;;;;;0.88;0.88;;;14.00;99.90;;;;;;934070;153;27356;-78
2023/01/11 13:13:14;;;;;;;0.90;0.88;;;14.00;99.90;;;;;;934301;152;27401;-81
2023/01/11 13:15:52;;;;;;;1.27;1.17;;;14.00;99.90;;;;;;933714;153;27456;-79
2023/01/11 13:18:19;;;;;;;1.15;1.05;;;13.90;99.90;;;;;;932834;153;27359;-80
2023/01/11 13:20:51;;;;;;;1.20;1.10;;;13.90;99.90;;;;;;934119;153;27453;-81
2023/01/11 13:23:21;;;;;;;1.72;1.10;;;13.90;99.90;;;;;;933142;153;27837;-81
2023/01/11 13:25:47;;;;;;;1.00;1.00;;;13.90;99.90;;;;;;933232;153;27849;-79
2023/01/11 13:28:29;;;;;;;1.52;1.15;;;13.90;99.90;;;;;;934145;153;27358;-79
2023/01/11 13:30:55;;;;;;;1.43;0.83;;;13.90;99.90;;;;;;933860;153;27350;-79
2023/01/11 13:33:22;;;;;;;0.80;0.80;;;13.90;99.90;;;;;;934155;153;27423;-79
2023/01/11 13:35:55;;;;;;;0.88;0.70;;;13.90;99.90;;;;;;934004;153;27362;-80
2023/01/11 13:38:27;;;;;;;0.50;0.50;;;13.90;99.90;;;;;;933442;150;27441;-79
2023/01/11 13:40:53;;;;;;;0.50;0.50;;;13.90;99.90;;;;;;933883;153;27390;-80